sensor_id;sensor_type;location;lat;lon;timestamp;pressure;altitude;pressure_sealevel;temperature;humidity
71601;BME280;59446;52.192;4.628;2022-07-05T00:01:48;102221.25;;;23.54;46.85
71601;BME280;59446;52.192;4.628;2022-07-05T00:04:13;102218.78;;;23.51;47.08
71601;BME280;59446;52.192;4.628;2022-07-05T00:06:38;102222.31;;;23.52;46.81
71601;BME280;59446;52.192;4.628;2022-07-05T00:09:24;102220.50;;;23.52;46.96
71601;BME280;59446;52.192;4.628;2022-07-05T00:11:49;102218.03;;;23.49;47.34
71601;BME280;59446;52.192;4.628;2022-07-05T00:14:15;102220.03;;;23.46;47.40
71601;BME280;59446;52.192;4.628;2022-07-05T00:16:40;102213.56;;;23.50;47.32
71601;BME280;59446;52.192;4.628;2022-07-05T00:19:05;102208.63;;;23.44;47.02
71601;BME280;59446;52.192;4.628;2022-07-05T00:21:31;102213.38;;;23.39;47.53
71601;BME280;59446;52.192;4.628;2022-07-05T00:23:56;102225.63;;;23.41;47.33
71601;BME280;59446;52.192;4.628;2022-07-05T00:26:21;102217.75;;;23.40;47.11
71601;BME280;59446;52.192;4.628;2022-07-05T00:28:47;102216.03;;;23.39;47.00
71601;BME280;59446;52.192;4.628;2022-07-05T00:31:12;102221.28;;;23.40;47.40
71601;BME280;59446;52.192;4.628;2022-07-05T00:33:38;102210.81;;;23.37;47.17
71601;BME280;59446;52.192;4.628;2022-07-05T00:36:03;102206.34;;;23.38;47.47
71601;BME280;59446;52.192;4.628;2022-07-05T00:38:29;102209.03;;;23.38;47.28
71601;BME280;59446;52.192;4.628;2022-07-05T00:40:54;102212.63;;;23.37;47.32
71601;BME280;59446;52.192;4.628;2022-07-05T00:43:20;102211.84;;;23.34;47.20
71601;BME280;59446;52.192;4.628;2022-07-05T00:45:45;102210.13;;;23.33;47.19
71601;BME280;59446;52.192;4.628;2022-07-05T00:48:10;102205.75;;;23.32;47.25
71601;BME280;59446;52.192;4.628;2022-07-05T00:50:36;102211.84;;;23.34;47.45
71601;BME280;59446;52.192;4.628;2022-07-05T00:53:01;102203.38;;;23.28;47.58
71601;BME280;59446;52.192;4.628;2022-07-05T00:55:27;102207.00;;;23.27;47.39
71601;BME280;59446;52.192;4.628;2022-07-05T00:57:54;102209.84;;;23.24;47.95
71601;BME280;59446;52.192;4.628;2022-07-05T01:00:19;102208.88;;;23.25;47.62
71601;BME280;59446;52.192;4.628;2022-07-05T01:02:45;102213.72;;;23.18;48.12
71601;BME280;59446;52.192;4.628;2022-07-05T01:05:11;102209.16;;;23.20;47.90
71601;BME280;59446;52.192;4.628;2022-07-05T01:07:36;102207.28;;;23.22;47.95
71601;BME280;59446;52.192;4.628;2022-07-05T01:10:02;102208.22;;;23.21;47.85
71601;BME280;59446;52.192;4.628;2022-07-05T01:12:27;102209.94;;;23.22;47.71
71601;BME280;59446;52.192;4.628;2022-07-05T01:14:53;102206.88;;;23.14;47.87
71601;BME280;59446;52.192;4.628;2022-07-05T01:17:20;102215.88;;;23.12;47.81
71601;BME280;59446;52.192;4.628;2022-07-05T01:19:45;102213.91;;;23.15;48.01
71601;BME280;59446;52.192;4.628;2022-07-05T01:22:19;102224.53;;;23.15;47.53
71601;BME280;59446;52.192;4.628;2022-07-05T01:24:46;102217.63;;;23.13;47.87
71601;BME280;59446;52.192;4.628;2022-07-05T01:27:12;102221.13;;;23.13;47.91
71601;BME280;59446;52.192;4.628;2022-07-05T01:29:37;102218.63;;;23.10;47.95
71601;BME280;59446;52.192;4.628;2022-07-05T01:32:03;102210.94;;;23.06;47.88
71601;BME280;59446;52.192;4.628;2022-07-05T01:34:28;102212.63;;;23.07;48.18
71601;BME280;59446;52.192;4.628;2022-07-05T01:36:54;102215.38;;;23.05;47.98
71601;BME280;59446;52.192;4.628;2022-07-05T01:39:19;102216.34;;;23.04;48.03
71601;BME280;59446;52.192;4.628;2022-07-05T01:41:47;102216.53;;;23.01;47.88
71601;BME280;59446;52.192;4.628;2022-07-05T01:44:13;102222.00;;;22.98;47.76
71601;BME280;59446;52.192;4.628;2022-07-05T01:46:39;102217.28;;;23.03;48.19
71601;BME280;59446;52.192;4.628;2022-07-05T01:49:10;102216.75;;;22.96;48.34
71601;BME280;59446;52.192;4.628;2022-07-05T01:52:02;102202.81;;;22.93;48.35
71601;BME280;59446;52.192;4.628;2022-07-05T01:54:28;102210.50;;;22.97;48.04
71601;BME280;59446;52.192;4.628;2022-07-05T01:56:54;102211.53;;;22.95;48.25
71601;BME280;59446;52.192;4.628;2022-07-05T01:59:19;102217.03;;;22.92;48.28
71601;BME280;59446;52.192;4.628;2022-07-05T02:01:45;102213.53;;;22.91;48.27
71601;BME280;59446;52.192;4.628;2022-07-05T02:04:10;102215.38;;;22.89;48.45
71601;BME280;59446;52.192;4.628;2022-07-05T02:06:36;102216.19;;;22.91;48.36
71601;BME280;59446;52.192;4.628;2022-07-05T02:09:04;102210.97;;;22.90;48.36
71601;BME280;59446;52.192;4.628;2022-07-05T02:11:29;102212.06;;;22.86;48.41
71601;BME280;59446;52.192;4.628;2022-07-05T02:13:55;102215.34;;;22.91;47.91
71601;BME280;59446;52.192;4.628;2022-07-05T02:16:24;102203.16;;;22.87;48.39
71601;BME280;59446;52.192;4.628;2022-07-05T02:18:50;102205.13;;;22.83;48.36
71601;BME280;59446;52.192;4.628;2022-07-05T02:21:15;102199.72;;;22.85;47.97
71601;BME280;59446;52.192;4.628;2022-07-05T02:23:40;102210.44;;;22.83;48.40
71601;BME280;59446;52.192;4.628;2022-07-05T02:26:06;102208.81;;;22.81;48.44
71601;BME280;59446;52.192;4.628;2022-07-05T02:28:31;102209.59;;;22.83;48.23
71601;BME280;59446;52.192;4.628;2022-07-05T02:30:57;102204.38;;;22.81;48.50
71601;BME280;59446;52.192;4.628;2022-07-05T02:33:22;102205.31;;;22.80;48.60
71601;BME280;59446;52.192;4.628;2022-07-05T02:35:47;102205.41;;;22.79;48.38
71601;BME280;59446;52.192;4.628;2022-07-05T02:38:13;102203.50;;;22.81;48.39
71601;BME280;59446;52.192;4.628;2022-07-05T02:40:38;102201.03;;;22.78;48.58
71601;BME280;59446;52.192;4.628;2022-07-05T02:43:03;102211.66;;;22.78;48.44
71601;BME280;59446;52.192;4.628;2022-07-05T02:45:29;102206.34;;;22.78;48.46
71601;BME280;59446;52.192;4.628;2022-07-05T02:47:54;102207.28;;;22.77;48.56
71601;BME280;59446;52.192;4.628;2022-07-05T02:50:20;102205.78;;;22.72;48.41
71601;BME280;59446;52.192;4.628;2022-07-05T02:52:45;102203.19;;;22.71;48.64
71601;BME280;59446;52.192;4.628;2022-07-05T02:55:11;102203.88;;;22.74;48.57
71601;BME280;59446;52.192;4.628;2022-07-05T02:57:37;102215.63;;;22.70;48.60
71601;BME280;59446;52.192;4.628;2022-07-05T03:00:04;102215.63;;;22.70;48.52
71601;BME280;59446;52.192;4.628;2022-07-05T03:02:31;102215.53;;;22.72;48.34
71601;BME280;59446;52.192;4.628;2022-07-05T03:04:57;102212.78;;;22.73;48.45
71601;BME280;59446;52.192;4.628;2022-07-05T03:07:22;102215.63;;;22.70;48.62
71601;BME280;59446;52.192;4.628;2022-07-05T03:09:47;102214.06;;;22.66;48.59
71601;BME280;59446;52.192;4.628;2022-07-05T03:12:13;102217.66;;;22.65;48.64
71601;BME280;59446;52.192;4.628;2022-07-05T03:14:38;102219.31;;;22.68;48.43
71601;BME280;59446;52.192;4.628;2022-07-05T03:17:04;102220.31;;;22.65;48.77
71601;BME280;59446;52.192;4.628;2022-07-05T03:19:29;102222.97;;;22.65;48.78
71601;BME280;59446;52.192;4.628;2022-07-05T03:21:54;102223.78;;;22.67;48.40
71601;BME280;59446;52.192;4.628;2022-07-05T03:24:20;102217.59;;;22.67;48.54
71601;BME280;59446;52.192;4.628;2022-07-05T03:26:45;102231.13;;;22.62;48.58
71601;BME280;59446;52.192;4.628;2022-07-05T03:29:10;102223.84;;;22.66;48.50
71601;BME280;59446;52.192;4.628;2022-07-05T03:31:36;102219.56;;;22.63;48.56
71601;BME280;59446;52.192;4.628;2022-07-05T03:34:01;102224.88;;;22.63;48.45
71601;BME280;59446;52.192;4.628;2022-07-05T03:36:26;102232.91;;;22.62;48.61
71601;BME280;59446;52.192;4.628;2022-07-05T03:38:52;102238.31;;;22.60;48.56
71601;BME280;59446;52.192;4.628;2022-07-05T03:41:17;102236.53;;;22.61;48.87
71601;BME280;59446;52.192;4.628;2022-07-05T03:43:43;102241.66;;;22.64;48.63
71601;BME280;59446;52.192;4.628;2022-07-05T03:46:08;102238.31;;;22.60;48.72
71601;BME280;59446;52.192;4.628;2022-07-05T03:48:34;102241.06;;;22.59;48.86
71601;BME280;59446;52.192;4.628;2022-07-05T03:50:59;102233.00;;;22.60;48.56
71601;BME280;59446;52.192;4.628;2022-07-05T03:53:25;102235.56;;;22.62;48.50
71601;BME280;59446;52.192;4.628;2022-07-05T03:55:50;102234.91;;;22.58;48.58
71601;BME280;59446;52.192;4.628;2022-07-05T03:58:15;102230.44;;;22.59;48.63
71601;BME280;59446;52.192;4.628;2022-07-05T04:00:41;102227.88;;;22.57;48.61
71601;BME280;59446;52.192;4.628;2022-07-05T04:03:06;102230.44;;;22.59;48.49
71601;BME280;59446;52.192;4.628;2022-07-05T04:05:32;102227.97;;;22.56;48.79
71601;BME280;59446;52.192;4.628;2022-07-05T04:07:57;102230.44;;;22.59;48.65
71601;BME280;59446;52.192;4.628;2022-07-05T04:10:23;102235.00;;;22.57;48.89
71601;BME280;59446;52.192;4.628;2022-07-05T04:12:48;102234.13;;;22.56;48.79
71601;BME280;59446;52.192;4.628;2022-07-05T04:15:14;102244.75;;;22.56;48.74
71601;BME280;59446;52.192;4.628;2022-07-05T04:17:53;102241.25;;;22.56;48.84
71601;BME280;59446;52.192;4.628;2022-07-05T04:20:19;102238.59;;;22.56;48.79
71601;BME280;59446;52.192;4.628;2022-07-05T04:22:48;102241.34;;;22.54;48.66
71601;BME280;59446;52.192;4.628;2022-07-05T04:25:14;102245.88;;;22.52;48.80
71601;BME280;59446;52.192;4.628;2022-07-05T04:27:46;102242.28;;;22.53;48.76
71601;BME280;59446;52.192;4.628;2022-07-05T04:30:13;102241.34;;;22.54;48.60
71601;BME280;59446;52.192;4.628;2022-07-05T04:32:39;102241.34;;;22.54;48.76
71601;BME280;59446;52.192;4.628;2022-07-05T04:35:04;102246.66;;;22.54;48.56
71601;BME280;59446;52.192;4.628;2022-07-05T04:37:30;102240.56;;;22.52;48.84
71601;BME280;59446;52.192;4.628;2022-07-05T04:39:55;102248.44;;;22.54;48.71
71601;BME280;59446;52.192;4.628;2022-07-05T04:42:21;102246.72;;;22.53;48.76
71601;BME280;59446;52.192;4.628;2022-07-05T04:44:46;102244.00;;;22.54;48.77
71601;BME280;59446;52.192;4.628;2022-07-05T04:47:11;102246.66;;;22.54;48.68
71601;BME280;59446;52.192;4.628;2022-07-05T04:49:37;102252.91;;;22.53;48.55
71601;BME280;59446;52.192;4.628;2022-07-05T04:52:02;102253.94;;;22.51;48.92
71601;BME280;59446;52.192;4.628;2022-07-05T04:54:28;102253.06;;;22.50;48.54
71601;BME280;59446;52.192;4.628;2022-07-05T04:56:53;102252.91;;;22.53;48.70
71601;BME280;59446;52.192;4.628;2022-07-05T04:59:18;102251.19;;;22.52;48.85
71601;BME280;59446;52.192;4.628;2022-07-05T05:01:44;102252.91;;;22.53;48.94
71601;BME280;59446;52.192;4.628;2022-07-05T05:04:09;102255.56;;;22.53;48.86
71601;BME280;59446;52.192;4.628;2022-07-05T05:06:34;102261.03;;;22.50;48.86
71601;BME280;59446;52.192;4.628;2022-07-05T05:09:00;102254.69;;;22.53;48.78
71601;BME280;59446;52.192;4.628;2022-07-05T05:11:25;102262.56;;;22.54;48.93
71601;BME280;59446;52.192;4.628;2022-07-05T05:13:51;102263.34;;;22.56;48.79
71601;BME280;59446;52.192;4.628;2022-07-05T05:16:16;102260.78;;;22.55;48.76
71601;BME280;59446;52.192;4.628;2022-07-05T05:18:42;102260.69;;;22.56;48.73
71601;BME280;59446;52.192;4.628;2022-07-05T05:21:07;102260.50;;;22.59;48.70
71601;BME280;59446;52.192;4.628;2022-07-05T05:23:32;102267.44;;;22.62;48.95
71601;BME280;59446;52.192;4.628;2022-07-05T05:25:58;102271.72;;;22.64;48.70
71601;BME280;59446;52.192;4.628;2022-07-05T05:28:23;102279.47;;;22.69;48.57
71601;BME280;59446;52.192;4.628;2022-07-05T05:30:48;102274.22;;;22.67;48.73
71601;BME280;59446;52.192;4.628;2022-07-05T05:33:14;102277.56;;;22.71;48.64
71601;BME280;59446;52.192;4.628;2022-07-05T05:35:39;102281.06;;;22.71;48.40
71601;BME280;59446;52.192;4.628;2022-07-05T05:38:04;102279.19;;;22.73;48.22
71601;BME280;59446;52.192;4.628;2022-07-05T05:40:30;102287.25;;;22.72;48.37
71601;BME280;59446;52.192;4.628;2022-07-05T05:42:55;102281.84;;;22.73;48.29
71601;BME280;59446;52.192;4.628;2022-07-05T05:45:22;102283.72;;;22.71;48.62
71601;BME280;59446;52.192;4.628;2022-07-05T05:47:58;102283.66;;;22.73;48.42
71601;BME280;59446;52.192;4.628;2022-07-05T05:50:25;102283.56;;;22.74;48.39
71601;BME280;59446;52.192;4.628;2022-07-05T05:52:51;102275.50;;;22.76;48.27
71601;BME280;59446;52.192;4.628;2022-07-05T05:55:17;102286.03;;;22.78;48.38
71601;BME280;59446;52.192;4.628;2022-07-05T05:57:43;102276.16;;;22.80;48.24
71601;BME280;59446;52.192;4.628;2022-07-05T06:00:09;102289.38;;;22.81;48.07
71601;BME280;59446;52.192;4.628;2022-07-05T06:02:35;102288.50;;;22.81;48.36
71601;BME280;59446;52.192;4.628;2022-07-05T06:05:01;102284.06;;;22.81;48.66
71601;BME280;59446;52.192;4.628;2022-07-05T06:07:26;102286.72;;;22.81;48.14
71601;BME280;59446;52.192;4.628;2022-07-05T06:09:52;102290.03;;;22.85;48.32
71601;BME280;59446;52.192;4.628;2022-07-05T06:12:17;102293.47;;;22.87;48.30
71601;BME280;59446;52.192;4.628;2022-07-05T06:14:42;102291.66;;;22.87;48.14
71601;BME280;59446;52.192;4.628;2022-07-05T06:17:08;102292.38;;;22.91;48.22
71601;BME280;59446;52.192;4.628;2022-07-05T06:19:33;102298.44;;;22.93;47.90
71601;BME280;59446;52.192;4.628;2022-07-05T06:21:59;102290.72;;;22.88;48.33
71601;BME280;59446;52.192;4.628;2022-07-05T06:24:24;102297.91;;;22.86;48.23
71601;BME280;59446;52.192;4.628;2022-07-05T06:26:49;102305.72;;;22.89;48.36
71601;BME280;59446;52.192;4.628;2022-07-05T06:29:15;102297.50;;;22.94;48.29
71601;BME280;59446;52.192;4.628;2022-07-05T06:31:40;102308.03;;;22.95;47.97
71601;BME280;59446;52.192;4.628;2022-07-05T06:34:05;102309.00;;;22.94;48.35
71601;BME280;59446;52.192;4.628;2022-07-05T06:36:31;102311.66;;;22.94;48.11
71601;BME280;59446;52.192;4.628;2022-07-05T06:38:56;102319.44;;;22.97;48.44
71601;BME280;59446;52.192;4.628;2022-07-05T06:41:22;102317.91;;;22.93;48.16
71601;BME280;59446;52.192;4.628;2022-07-05T06:43:47;102319.53;;;22.96;48.18
71601;BME280;59446;52.192;4.628;2022-07-05T06:46:12;102327.41;;;22.97;47.95
71601;BME280;59446;52.192;4.628;2022-07-05T06:48:38;102317.81;;;22.95;48.28
71601;BME280;59446;52.192;4.628;2022-07-05T06:51:03;102318.84;;;22.92;47.92
71601;BME280;59446;52.192;4.628;2022-07-05T06:53:28;102324.25;;;22.91;47.90
71601;BME280;59446;52.192;4.628;2022-07-05T06:55:54;102319.72;;;22.93;47.63
71601;BME280;59446;52.192;4.628;2022-07-05T06:58:19;102323.13;;;22.95;47.10
71601;BME280;59446;52.192;4.628;2022-07-05T07:00:45;102324.84;;;22.96;46.37
71601;BME280;59446;52.192;4.628;2022-07-05T07:03:10;102326.47;;;22.98;45.92
71601;BME280;59446;52.192;4.628;2022-07-05T07:05:35;102328.34;;;22.96;46.07
71601;BME280;59446;52.192;4.628;2022-07-05T07:08:01;102330.34;;;22.93;45.81
71601;BME280;59446;52.192;4.628;2022-07-05T07:10:45;102329.47;;;22.92;45.27
71601;BME280;59446;52.192;4.628;2022-07-05T07:13:10;102337.28;;;22.95;45.32
71601;BME280;59446;52.192;4.628;2022-07-05T07:15:36;102331.88;;;22.97;44.93
71601;BME280;59446;52.192;4.628;2022-07-05T07:18:03;102334.69;;;22.94;45.24
71601;BME280;59446;52.192;4.628;2022-07-05T07:20:29;102329.31;;;22.95;45.43
71601;BME280;59446;52.192;4.628;2022-07-05T07:22:54;102337.19;;;22.97;45.70
71601;BME280;59446;52.192;4.628;2022-07-05T07:25:20;102323.91;;;22.97;45.49
71601;BME280;59446;52.192;4.628;2022-07-05T07:27:50;102338.84;;;22.99;45.37
71601;BME280;59446;52.192;4.628;2022-07-05T07:30:19;102343.34;;;22.97;45.44
71601;BME280;59446;52.192;4.628;2022-07-05T07:32:45;102338.03;;;22.97;45.36
71601;BME280;59446;52.192;4.628;2022-07-05T07:35:11;102345.06;;;22.98;45.20
71601;BME280;59446;52.192;4.628;2022-07-05T07:37:37;102339.75;;;22.98;45.00
71601;BME280;59446;52.192;4.628;2022-07-05T07:40:06;102347.47;;;23.03;45.09
71601;BME280;59446;52.192;4.628;2022-07-05T07:42:32;102350.16;;;23.03;44.61
71601;BME280;59446;52.192;4.628;2022-07-05T07:44:58;102347.47;;;23.03;44.70
71601;BME280;59446;52.192;4.628;2022-07-05T07:47:24;102351.25;;;22.99;44.87
71601;BME280;59446;52.192;4.628;2022-07-05T07:49:49;102351.41;;;22.96;44.48
71601;BME280;59446;52.192;4.628;2022-07-05T07:52:15;102350.47;;;22.97;44.34
71601;BME280;59446;52.192;4.628;2022-07-05T07:54:40;102341.50;;;22.99;44.06
71601;BME280;59446;52.192;4.628;2022-07-05T07:57:06;102349.53;;;22.98;44.41
71601;BME280;59446;52.192;4.628;2022-07-05T07:59:32;102353.03;;;22.98;44.23
71601;BME280;59446;52.192;4.628;2022-07-05T08:01:57;102349.53;;;22.98;44.38
71601;BME280;59446;52.192;4.628;2022-07-05T08:04:23;102358.13;;;23.03;44.46
71601;BME280;59446;52.192;4.628;2022-07-05T08:06:48;102360.50;;;23.08;44.30
71601;BME280;59446;52.192;4.628;2022-07-05T08:09:14;102361.19;;;23.11;44.10
71601;BME280;59446;52.192;4.628;2022-07-05T08:11:39;102369.00;;;23.14;44.23
71601;BME280;59446;52.192;4.628;2022-07-05T08:14:05;102362.41;;;23.06;44.42
71601;BME280;59446;52.192;4.628;2022-07-05T08:16:30;102368.25;;;23.12;44.11
71601;BME280;59446;52.192;4.628;2022-07-05T08:18:56;102367.97;;;23.17;44.07
71601;BME280;59446;52.192;4.628;2022-07-05T08:21:39;102366.66;;;23.24;43.53
71601;BME280;59446;52.192;4.628;2022-07-05T08:24:07;102366.94;;;23.19;43.87
71601;BME280;59446;52.192;4.628;2022-07-05T08:26:33;102360.41;;;23.25;43.84
71601;BME280;59446;52.192;4.628;2022-07-05T08:29:00;102370.06;;;23.42;43.43
71601;BME280;59446;52.192;4.628;2022-07-05T08:31:30;102362.50;;;23.50;43.42
71601;BME280;59446;52.192;4.628;2022-07-05T08:33:56;102368.75;;;23.49;43.37
71601;BME280;59446;52.192;4.628;2022-07-05T08:36:22;102367.50;;;23.40;43.26
71601;BME280;59446;52.192;4.628;2022-07-05T08:38:48;102372.47;;;23.30;43.74
71601;BME280;59446;52.192;4.628;2022-07-05T08:41:17;102373.84;;;23.38;43.61
71601;BME280;59446;52.192;4.628;2022-07-05T08:43:44;102364.56;;;23.45;43.76
71601;BME280;59446;52.192;4.628;2022-07-05T08:46:11;102370.25;;;23.39;43.56
71601;BME280;59446;52.192;4.628;2022-07-05T08:48:37;102376.44;;;23.39;43.42
71601;BME280;59446;52.192;4.628;2022-07-05T08:51:14;102376.66;;;23.34;43.90
71601;BME280;59446;52.192;4.628;2022-07-05T08:53:40;102376.59;;;23.36;43.71
71601;BME280;59446;52.192;4.628;2022-07-05T08:56:08;102376.66;;;23.34;44.23
71601;BME280;59446;52.192;4.628;2022-07-05T08:58:34;102369.56;;;23.35;44.11
71601;BME280;59446;52.192;4.628;2022-07-05T09:01:00;102367.31;;;23.43;43.77
71601;BME280;59446;52.192;4.628;2022-07-05T09:03:43;102372.94;;;23.53;43.81
71601;BME280;59446;52.192;4.628;2022-07-05T09:06:11;102374.34;;;23.44;44.51
71601;BME280;59446;52.192;4.628;2022-07-05T09:08:38;102374.13;;;23.63;43.69
71601;BME280;59446;52.192;4.628;2022-07-05T09:11:09;102380.69;;;23.57;43.30
71601;BME280;59446;52.192;4.628;2022-07-05T09:13:41;102375.84;;;23.64;43.75
71601;BME280;59446;52.192;4.628;2022-07-05T09:16:07;102384.16;;;23.74;43.43
71601;BME280;59446;52.192;4.628;2022-07-05T09:19:08;102383.88;;;23.78;43.78
71601;BME280;59446;52.192;4.628;2022-07-05T09:21:34;102381.25;;;23.92;43.30
71601;BME280;59446;52.192;4.628;2022-07-05T09:24:04;102384.56;;;23.82;43.33
71601;BME280;59446;52.192;4.628;2022-07-05T09:26:43;102384.00;;;23.91;43.39
71601;BME280;59446;52.192;4.628;2022-07-05T09:29:17;102390.09;;;23.93;43.28
71601;BME280;59446;52.192;4.628;2022-07-05T09:31:45;102386.19;;;23.84;42.84
71601;BME280;59446;52.192;4.628;2022-07-05T09:34:16;102388.75;;;23.86;43.04
71601;BME280;59446;52.192;4.628;2022-07-05T09:37:02;102391.91;;;23.92;43.24
71601;BME280;59446;52.192;4.628;2022-07-05T09:44:37;102401.06;;;24.03;42.52
71601;BME280;59446;52.192;4.628;2022-07-05T09:47:16;102408.16;;;24.02;42.96
71601;BME280;59446;52.192;4.628;2022-07-05T09:49:44;102403.72;;;24.03;42.51
71601;BME280;59446;52.192;4.628;2022-07-05T09:52:28;102415.69;;;24.10;42.35
71601;BME280;59446;52.192;4.628;2022-07-05T09:55:07;102407.91;;;24.07;43.36
71601;BME280;59446;52.192;4.628;2022-07-05T09:57:37;102412.66;;;24.16;42.68
71601;BME280;59446;52.192;4.628;2022-07-05T10:00:15;102423.22;;;24.03;42.49
71601;BME280;59446;52.192;4.628;2022-07-05T10:02:43;102413.91;;;24.10;42.26
71601;BME280;59446;52.192;4.628;2022-07-05T10:05:16;102418.56;;;24.07;41.77
71601;BME280;59446;52.192;4.628;2022-07-05T10:07:44;102424.53;;;24.10;41.96
71601;BME280;59446;52.192;4.628;2022-07-05T10:10:11;102417.03;;;24.17;41.17
71601;BME280;59446;52.192;4.628;2022-07-05T10:12:37;102417.22;;;24.14;41.34
71601;BME280;59446;52.192;4.628;2022-07-05T10:15:05;102419.97;;;24.12;41.47
71601;BME280;59446;52.192;4.628;2022-07-05T10:17:36;102418.19;;;24.27;41.12
71601;BME280;59446;52.192;4.628;2022-07-05T10:20:03;102421.63;;;24.29;41.19
71601;BME280;59446;52.192;4.628;2022-07-05T10:22:30;102413.94;;;24.39;40.79
71601;BME280;59446;52.192;4.628;2022-07-05T10:24:55;102409.94;;;24.32;40.53
71601;BME280;59446;52.192;4.628;2022-07-05T10:27:26;102427.94;;;24.42;40.29
71601;BME280;59446;52.192;4.628;2022-07-05T10:29:53;102427.72;;;24.31;40.62
71601;BME280;59446;52.192;4.628;2022-07-05T10:32:22;102424.63;;;24.23;40.44
71601;BME280;59446;52.192;4.628;2022-07-05T10:34:49;102433.38;;;24.11;39.87
71601;BME280;59446;52.192;4.628;2022-07-05T10:37:16;102419.59;;;24.18;40.19
71601;BME280;59446;52.192;4.628;2022-07-05T10:39:42;102430.59;;;24.42;39.70
71601;BME280;59446;52.192;4.628;2022-07-05T10:42:08;102427.94;;;24.57;39.65
71601;BME280;59446;52.192;4.628;2022-07-05T10:44:34;102432.19;;;24.45;39.16
71601;BME280;59446;52.192;4.628;2022-07-05T10:47:10;102432.53;;;24.24;38.95
71601;BME280;59446;52.192;4.628;2022-07-05T10:49:37;102435.06;;;23.98;39.16
71601;BME280;59446;52.192;4.628;2022-07-05T10:52:03;102444.97;;;24.10;39.66
71601;BME280;59446;52.192;4.628;2022-07-05T10:54:29;102435.06;;;23.98;38.98
71601;BME280;59446;52.192;4.628;2022-07-05T10:57:23;102436.19;;;23.93;38.97
71601;BME280;59446;52.192;4.628;2022-07-05T11:00:08;102441.31;;;23.97;38.97
71601;BME280;59446;52.192;4.628;2022-07-05T11:02:35;102437.31;;;23.89;39.30
71601;BME280;59446;52.192;4.628;2022-07-05T11:05:01;102437.53;;;24.01;39.43
71601;BME280;59446;52.192;4.628;2022-07-05T11:08:01;102445.50;;;24.01;38.93
71601;BME280;59446;52.192;4.628;2022-07-05T11:10:28;102438.38;;;24.01;39.14
71601;BME280;59446;52.192;4.628;2022-07-05T11:12:56;102439.44;;;23.99;39.03
71601;BME280;59446;52.192;4.628;2022-07-05T11:15:22;102442.28;;;23.95;38.13
71601;BME280;59446;52.192;4.628;2022-07-05T11:17:47;102439.34;;;24.00;38.55
71601;BME280;59446;52.192;4.628;2022-07-05T11:20:15;102443.22;;;23.94;38.57
71601;BME280;59446;52.192;4.628;2022-07-05T11:25:29;102442.19;;;23.97;37.79
71601;BME280;59446;52.192;4.628;2022-07-05T11:28:04;102449.69;;;23.90;37.87
71601;BME280;59446;52.192;4.628;2022-07-05T11:30:44;102450.16;;;23.97;37.50
71601;BME280;59446;52.192;4.628;2022-07-05T11:33:45;102444.03;;;24.11;37.40
71601;BME280;59446;52.192;4.628;2022-07-05T11:36:22;102444.97;;;24.10;37.46
71601;BME280;59446;52.192;4.628;2022-07-05T11:39:13;102445.25;;;24.05;37.90
71601;BME280;59446;52.192;4.628;2022-07-05T11:41:46;102447.06;;;24.19;37.16
71601;BME280;59446;52.192;4.628;2022-07-05T11:44:12;102457.44;;;24.09;37.48
71601;BME280;59446;52.192;4.628;2022-07-05T11:46:38;102450.06;;;23.99;37.88
71601;BME280;59446;52.192;4.628;2022-07-05T11:49:03;102444.75;;;23.99;37.89
71601;BME280;59446;52.192;4.628;2022-07-05T11:51:29;102447.66;;;24.10;37.67
71601;BME280;59446;52.192;4.628;2022-07-05T11:53:54;102445.16;;;24.07;37.85
71601;BME280;59446;52.192;4.628;2022-07-05T11:56:20;102447.38;;;24.14;37.83
71601;BME280;59446;52.192;4.628;2022-07-05T11:58:46;102453.81;;;24.24;37.79
71601;BME280;59446;52.192;4.628;2022-07-05T12:01:11;102445.84;;;24.24;37.62
71601;BME280;59446;52.192;4.628;2022-07-05T12:03:37;102462.31;;;24.31;37.38
71601;BME280;59446;52.192;4.628;2022-07-05T12:06:14;102462.50;;;24.28;36.91
71601;BME280;59446;52.192;4.628;2022-07-05T12:08:41;102458.38;;;24.52;36.60
71601;BME280;59446;52.192;4.628;2022-07-05T12:11:09;102453.69;;;24.42;36.77
71601;BME280;59446;52.192;4.628;2022-07-05T12:13:53;102452.09;;;24.39;37.33
71601;BME280;59446;52.192;4.628;2022-07-05T12:16:18;102447.66;;;24.24;37.08
71601;BME280;59446;52.192;4.628;2022-07-05T12:18:48;102457.91;;;24.16;37.44
71601;BME280;59446;52.192;4.628;2022-07-05T12:21:14;102450.69;;;24.18;36.93
71601;BME280;59446;52.192;4.628;2022-07-05T12:23:43;102465.63;;;24.20;37.49
71601;BME280;59446;52.192;4.628;2022-07-05T12:26:11;102459.34;;;24.21;37.41
71601;BME280;59446;52.192;4.628;2022-07-05T12:28:37;102455.16;;;24.17;38.25
71601;BME280;59446;52.192;4.628;2022-07-05T12:33:40;102462.28;;;24.17;38.66
71601;BME280;59446;52.192;4.628;2022-07-05T12:36:11;102462.88;;;24.22;39.17
71601;BME280;59446;52.192;4.628;2022-07-05T12:38:37;102456.09;;;24.16;39.10
71601;BME280;59446;52.192;4.628;2022-07-05T12:41:02;102472.94;;;24.17;39.62
71601;BME280;59446;52.192;4.628;2022-07-05T12:43:28;102455.59;;;24.40;38.89
71601;BME280;59446;52.192;4.628;2022-07-05T12:46:04;102452.53;;;24.32;40.21
71601;BME280;59446;52.192;4.628;2022-07-05T12:48:37;102443.34;;;24.37;40.13
71601;BME280;59446;52.192;4.628;2022-07-05T12:51:05;102448.09;;;24.46;39.60
71601;BME280;59446;52.192;4.628;2022-07-05T12:53:30;102449.03;;;24.45;39.33
71601;BME280;59446;52.192;4.628;2022-07-05T12:56:15;102457.13;;;24.44;40.12
71601;BME280;59446;52.192;4.628;2022-07-05T12:59:00;102466.25;;;24.40;39.64
71601;BME280;59446;52.192;4.628;2022-07-05T13:03:59;102466.56;;;24.49;40.37
71601;BME280;59446;52.192;4.628;2022-07-05T13:06:55;102471.56;;;24.25;40.48